LTAC/ESB METAR and TAF weather

Enter ICAO airport designator
Station Type Date Time Source
LTAC METAR 2019/12/09 05:50 UTC NOAA

LTAC 090550Z 00000KT 1600 BR BKN003 M00/M01 Q1017 BECMG TL0650 4000 BKN010


Station Type Date Time Source
LTAC Decoded METAR 2019/12/09 05:50 UTC NOAA

Ankara / Esenboga, Turkey (LTAC) 40-07N 032-59E 949M
Dec 09, 2019 - 12:50 AM EST / 2019.12.09 0550 UTC
Wind: Calm:0
Visibility: less than 1 mile:0
Sky conditions: mostly cloudy
Weather: mist
Temperature: 32 F (0 C)
Dew Point: 30 F (-1 C)
Relative Humidity: 92%
Pressure (altimeter): 30.03 in. Hg (1017 hPa)
ob: LTAC 090550Z 00000KT 1600 BR BKN003 M00/M01 Q1017 BECMG TL0650 4000 BKN010
cycle: 6

Station Type Date Time Source
LTAC TAF 2019/12/09 06:03 UTC NOAA

TAF TAF LTAC 090440Z 0906/1006 VRB02KT 4000 BR BKN010
TEMPO 0906/0907 1200 BCFG BKN005
BECMG 0907/0909 9999 NSW SCT040

Example: see airport list